Time;durP1;ratioP1;P1;durP2;ratioP2;P2;SDS_P1;SDS_P2;PMS_P1;PMS_P2;Temp;Humidity;BMP_temperature;BMP_pressure;BME280_temperature;BME280_humidity;BME280_pressure;Samples;Min_cycle;Max_cycle;Signal;HPM_P1;HPM_P2
2022/04/02 00:01:16;;;;;;;1.80;1.40;;;21.00;42.20;;;;;;5052683;28;20193;-69
2022/04/02 00:03:42;;;;;;;3.20;1.50;;;21.00;42.60;;;;;;5052773;28;20411;-69
2022/04/02 00:06:08;;;;;;;2.57;1.30;;;21.00;42.40;;;;;;5052005;28;20396;-69
2022/04/02 00:08:34;;;;;;;1.80;1.40;;;21.00;42.40;;;;;;5052421;28;20165;-69
2022/04/02 00:11:00;;;;;;;2.40;1.40;;;20.90;42.10;;;;;;5052333;28;20541;-67
2022/04/02 00:13:26;;;;;;;2.20;1.20;;;20.90;42.20;;;;;;5052556;28;20412;-68
2022/04/02 00:15:52;;;;;;;2.37;1.47;;;21.00;42.30;;;;;;5052451;28;20990;-68
2022/04/02 00:18:17;;;;;;;1.73;1.10;;;20.90;42.60;;;;;;5052320;28;20416;-67
2022/04/02 00:20:43;;;;;;;1.70;1.20;;;20.90;42.60;;;;;;5051903;28;20207;-68
2022/04/02 00:25:52;;;;;;;1.90;1.30;;;20.90;42.80;;;;;;5054340;28;20227;-68
2022/04/02 00:28:18;;;;;;;2.60;1.23;;;20.90;42.70;;;;;;5052204;28;20412;-68
2022/04/02 00:30:44;;;;;;;2.30;1.40;;;20.90;42.60;;;;;;5053085;28;20260;-69
2022/04/02 00:33:10;;;;;;;2.00;1.23;;;20.90;42.30;;;;;;5052130;28;20173;-67
2022/04/02 00:35:36;;;;;;;1.80;1.17;;;20.90;42.50;;;;;;5052259;28;20177;-67
2022/04/02 00:38:02;;;;;;;1.60;1.10;;;20.90;42.40;;;;;;5052211;28;20464;-68
2022/04/02 00:40:28;;;;;;;1.73;1.00;;;20.90;42.60;;;;;;5051594;28;20676;-68
2022/04/02 00:42:54;;;;;;;1.70;1.23;;;20.90;43.10;;;;;;5052082;28;20284;-68
2022/04/02 00:45:20;;;;;;;1.57;1.10;;;20.90;43.10;;;;;;5051997;28;20416;-68
2022/04/02 00:47:46;;;;;;;6.73;1.37;;;20.90;42.90;;;;;;5051962;28;20227;-68
2022/04/02 00:50:12;;;;;;;3.10;1.30;;;20.90;43.30;;;;;;5051611;28;20176;-67
2022/04/02 00:52:39;;;;;;;3.70;1.50;;;20.90;43.30;;;;;;5053185;28;20204;-67
2022/04/02 00:55:05;;;;;;;4.03;1.00;;;20.90;42.50;;;;;;5051891;28;20697;-67
2022/04/02 00:57:32;;;;;;;3.10;1.97;;;20.90;42.80;;;;;;5051701;28;20533;-67
2022/04/02 00:59:57;;;;;;;15.93;1.60;;;20.90;42.50;;;;;;5051250;28;20455;-67
2022/04/02 01:02:24;;;;;;;3.40;1.17;;;20.90;42.40;;;;;;5035287;28;20456;-67
2022/04/02 01:04:50;;;;;;;2.00;1.37;;;20.90;43.10;;;;;;5051738;28;20537;-67
2022/04/02 01:07:16;;;;;;;1.50;1.03;;;20.90;42.70;;;;;;5051635;28;20181;-67
2022/04/02 01:09:42;;;;;;;2.00;1.30;;;20.90;42.50;;;;;;5051175;28;20268;-67
2022/04/02 01:12:08;;;;;;;2.10;1.30;;;20.90;42.80;;;;;;5051425;28;20462;-67
2022/04/02 01:14:34;;;;;;;1.93;1.07;;;20.90;42.70;;;;;;5051356;28;20235;-67
2022/04/02 01:17:01;;;;;;;1.80;1.17;;;20.90;42.60;;;;;;5051342;28;20419;-68
2022/04/02 01:19:28;;;;;;;4.43;1.30;;;20.80;42.20;;;;;;5050904;28;20295;-68
2022/04/02 01:21:54;;;;;;;4.67;1.17;;;20.90;43.10;;;;;;5051319;28;20427;-68
2022/04/02 01:24:20;;;;;;;3.70;1.23;;;20.90;42.90;;;;;;5051308;28;20438;-67
2022/04/02 01:26:45;;;;;;;2.10;1.17;;;20.90;43.10;;;;;;5052795;28;20873;-67
2022/04/02 01:29:11;;;;;;;10.20;1.40;;;20.90;43.20;;;;;;5050974;28;20661;-68
2022/04/02 01:31:37;;;;;;;1.80;1.20;;;20.90;43.00;;;;;;5051340;28;20653;-67
2022/04/02 01:34:02;;;;;;;2.67;1.23;;;20.90;42.70;;;;;;5051323;28;20177;-68
2022/04/02 01:36:28;;;;;;;2.27;1.13;;;20.90;43.10;;;;;;5051518;28;20173;-68
2022/04/02 01:38:54;;;;;;;2.10;1.40;;;20.90;43.10;;;;;;5050986;28;20288;-67
2022/04/02 01:41:20;;;;;;;3.70;1.43;;;21.00;43.00;;;;;;5051243;28;20197;-67
2022/04/02 01:43:48;;;;;;;3.63;1.10;;;21.00;42.80;;;;;;5051305;28;20184;-67
2022/04/02 01:46:14;;;;;;;1.83;1.27;;;21.00;43.00;;;;;;5051485;28;21094;-66
2022/04/02 01:48:40;;;;;;;2.87;1.10;;;21.00;42.70;;;;;;5052447;28;20407;-67
2022/04/02 01:51:06;;;;;;;2.40;1.27;;;21.00;42.80;;;;;;5050989;28;20744;-68
2022/04/02 01:53:32;;;;;;;1.60;1.20;;;21.00;43.10;;;;;;5051273;28;20581;-68
2022/04/02 01:55:59;;;;;;;2.43;1.30;;;21.00;42.90;;;;;;5051175;28;20420;-67
2022/04/02 01:58:25;;;;;;;1.60;1.20;;;21.00;43.10;;;;;;5051011;28;20466;-68
2022/04/02 02:00:51;;;;;;;3.40;1.20;;;21.00;43.00;;;;;;5050845;28;20491;-68
2022/04/02 02:03:17;;;;;;;1.77;1.27;;;21.00;42.80;;;;;;5052455;28;20439;-68
2022/04/02 02:05:44;;;;;;;2.20;1.20;;;21.00;42.90;;;;;;5051189;28;20307;-68
2022/04/02 02:08:09;;;;;;;3.10;1.03;;;20.90;43.10;;;;;;5051134;28;20416;-68
2022/04/02 02:10:35;;;;;;;1.50;1.00;;;21.00;42.70;;;;;;5050449;28;20493;-68
2022/04/02 02:13:02;;;;;;;1.60;1.10;;;21.00;43.10;;;;;;5051115;28;20243;-68
2022/04/02 02:15:27;;;;;;;2.10;1.13;;;21.00;42.00;;;;;;5051269;28;20181;-68
2022/04/02 02:17:53;;;;;;;6.03;1.00;;;21.00;43.00;;;;;;5052463;28;20413;-68
2022/04/02 02:20:20;;;;;;;3.33;1.10;;;21.00;42.50;;;;;;5050433;28;20630;-68
2022/04/02 02:22:47;;;;;;;1.93;1.10;;;21.00;42.90;;;;;;5050931;28;20530;-68
2022/04/02 02:25:14;;;;;;;2.23;1.33;;;21.00;42.90;;;;;;5050941;28;20423;-68
2022/04/02 02:27:42;;;;;;;1.53;0.90;;;21.00;42.80;;;;;;5050879;28;20415;-68
2022/04/02 02:30:09;;;;;;;1.70;1.10;;;21.00;42.80;;;;;;5053462;28;20439;-68
2022/04/02 02:32:39;;;;;;;1.83;1.03;;;21.00;42.80;;;;;;5054495;28;20435;-68
2022/04/02 02:38:00;;;;;;;2.27;1.00;;;21.00;42.60;;;;;;5056121;28;20550;-68
2022/04/02 02:40:26;;;;;;;1.53;1.00;;;21.00;43.20;;;;;;5053758;28;21018;-68
2022/04/02 02:42:51;;;;;;;1.93;1.10;;;21.00;42.80;;;;;;5054232;28;20458;-68
2022/04/02 02:45:17;;;;;;;2.33;1.20;;;21.00;43.20;;;;;;5054272;28;20177;-68
2022/04/02 02:47:43;;;;;;;6.80;1.07;;;21.00;42.80;;;;;;5054170;28;20169;-68
2022/04/02 02:50:08;;;;;;;1.73;1.10;;;21.00;42.90;;;;;;5053696;28;20231;-68
2022/04/02 02:52:34;;;;;;;1.70;1.20;;;21.00;42.60;;;;;;5053880;28;20290;-68
2022/04/02 02:55:00;;;;;;;1.90;1.20;;;21.00;42.90;;;;;;5054042;28;20296;-67
2022/04/02 02:57:26;;;;;;;1.93;1.00;;;21.00;43.00;;;;;;5054051;28;20197;-68
2022/04/02 02:59:51;;;;;;;1.50;0.90;;;21.00;43.10;;;;;;5054902;28;20225;-68
2022/04/02 03:02:17;;;;;;;1.90;1.10;;;21.00;43.10;;;;;;5053839;28;20193;-68
2022/04/02 03:04:43;;;;;;;1.50;1.00;;;20.90;42.90;;;;;;5053965;28;20626;-68
2022/04/02 03:07:09;;;;;;;1.30;0.83;;;21.00;43.10;;;;;;5053758;28;20177;-68
2022/04/02 03:09:34;;;;;;;3.20;1.13;;;21.00;43.30;;;;;;5053426;28;20177;-68
2022/04/02 03:12:00;;;;;;;1.10;0.80;;;20.90;43.50;;;;;;5053809;28;20232;-67
2022/04/02 03:14:26;;;;;;;1.57;1.00;;;20.90;42.90;;;;;;5053768;28;20570;-67
2022/04/02 03:16:51;;;;;;;1.70;1.00;;;20.90;43.50;;;;;;5053738;28;20177;-68
2022/04/02 03:19:17;;;;;;;1.67;1.10;;;20.90;43.30;;;;;;5052998;28;20250;-68
2022/04/02 03:21:42;;;;;;;2.10;1.07;;;20.90;43.70;;;;;;5053498;28;20276;-68
2022/04/02 03:24:08;;;;;;;1.50;1.00;;;20.90;43.70;;;;;;5054975;28;20529;-67
2022/04/02 03:26:34;;;;;;;2.10;1.30;;;20.90;43.70;;;;;;5053458;28;20318;-67
2022/04/02 03:29:00;;;;;;;1.53;1.10;;;20.90;43.40;;;;;;5053199;28;20629;-67
2022/04/02 03:31:26;;;;;;;1.60;1.00;;;20.90;43.70;;;;;;5053575;28;20193;-68
2022/04/02 03:33:51;;;;;;;1.40;1.00;;;20.90;43.60;;;;;;5053475;28;20625;-68
2022/04/02 03:36:18;;;;;;;1.30;0.80;;;20.90;43.90;;;;;;5054624;28;20533;-68
2022/04/02 03:38:44;;;;;;;1.40;1.00;;;20.90;43.50;;;;;;5052846;28;20181;-68
2022/04/02 03:41:12;;;;;;;1.50;1.00;;;20.90;43.90;;;;;;5051680;28;20428;-68
2022/04/02 03:43:38;;;;;;;1.40;1.00;;;20.90;43.80;;;;;;5053096;28;20938;-68
2022/04/02 03:48:48;;;;;;;1.60;1.00;;;20.90;43.60;;;;;;5054375;28;20675;-68
2022/04/02 03:51:13;;;;;;;1.40;0.80;;;21.00;43.70;;;;;;5054059;28;20451;-68
2022/04/02 03:53:39;;;;;;;1.50;0.97;;;20.90;43.30;;;;;;5053033;28;20223;-68
2022/04/02 03:56:07;;;;;;;2.53;1.07;;;21.00;43.50;;;;;;5052930;28;20226;-67
2022/04/02 03:58:32;;;;;;;1.57;1.00;;;20.90;44.40;;;;;;5057255;28;20184;-68
2022/04/02 04:00:58;;;;;;;1.30;0.90;;;20.90;44.20;;;;;;5062952;28;20432;-68
2022/04/02 04:03:24;;;;;;;1.63;0.97;;;20.90;44.30;;;;;;5067434;28;20970;-68
2022/04/02 04:05:49;;;;;;;1.30;0.80;;;20.80;44.50;;;;;;5063411;28;20206;-68
2022/04/02 04:08:15;;;;;;;1.30;0.90;;;20.80;44.40;;;;;;5064520;28;20232;-67
2022/04/02 04:10:41;;;;;;;1.70;0.90;;;20.80;44.40;;;;;;5062900;28;20229;-68
2022/04/02 04:13:07;;;;;;;1.70;1.10;;;20.80;44.60;;;;;;5056178;28;20169;-68
2022/04/02 04:15:33;;;;;;;2.80;0.80;;;20.80;44.50;;;;;;5060123;28;20449;-68
2022/04/02 04:17:59;;;;;;;1.40;0.93;;;20.80;44.60;;;;;;5058454;28;20169;-68
2022/04/02 04:20:25;;;;;;;1.50;0.90;;;20.80;44.60;;;;;;5056943;28;21007;-68
2022/04/02 04:22:52;;;;;;;1.30;0.80;;;20.70;44.70;;;;;;5063013;28;20179;-68
2022/04/02 04:25:17;;;;;;;1.60;0.93;;;20.70;44.60;;;;;;5058122;28;20773;-68
2022/04/02 04:27:43;;;;;;;1.63;0.97;;;20.70;44.80;;;;;;5060019;28;21055;-68
2022/04/02 04:30:09;;;;;;;1.70;0.90;;;20.70;44.80;;;;;;5060103;28;20655;-68
2022/04/02 04:32:35;;;;;;;1.30;0.80;;;20.70;44.50;;;;;;5065042;28;20560;-68
2022/04/02 04:35:00;;;;;;;2.13;0.90;;;20.70;44.90;;;;;;5059425;28;22378;-68
2022/04/02 04:37:26;;;;;;;1.50;0.90;;;20.70;44.30;;;;;;5055279;28;20169;-68
2022/04/02 04:39:52;;;;;;;1.70;0.90;;;20.70;45.10;;;;;;5065180;28;20204;-68
2022/04/02 04:42:17;;;;;;;1.47;0.90;;;20.70;44.90;;;;;;5068135;28;20240;-68
2022/04/02 04:44:43;;;;;;;3.60;1.10;;;20.70;43.20;;;;;;5060631;28;20169;-68
2022/04/02 04:47:10;;;;;;;1.37;0.80;;;20.70;44.80;;;;;;5055826;28;20207;-68
2022/04/02 04:49:36;;;;;;;1.90;0.97;;;20.70;44.90;;;;;;5066882;28;20479;-67
2022/04/02 04:52:03;;;;;;;2.17;1.00;;;20.70;45.80;;;;;;5071144;28;20450;-68
2022/04/02 04:54:33;;;;;;;2.47;1.03;;;20.80;44.80;;;;;;5088569;28;20720;-67
2022/04/02 04:56:59;;;;;;;3.67;1.00;;;20.80;44.40;;;;;;5066430;28;20431;-67
2022/04/02 04:59:25;;;;;;;18.80;1.13;;;20.80;44.40;;;;;;5066213;28;20459;-68
2022/04/02 05:01:51;;;;;;;3.67;1.10;;;20.80;45.10;;;;;;5057534;28;20272;-67
2022/04/02 05:04:17;;;;;;;2.73;1.20;;;20.70;44.80;;;;;;5059496;28;20263;-67
2022/04/02 05:06:43;;;;;;;4.67;2.20;;;20.70;44.70;;;;;;5055963;28;20971;-69
2022/04/02 05:09:09;;;;;;;5.20;2.03;;;20.60;40.60;;;;;;5066927;28;20179;-67
2022/04/02 05:11:35;;;;;;;2.60;1.60;;;20.10;41.30;;;;;;5053727;28;20765;-68
2022/04/02 05:14:01;;;;;;;3.83;1.40;;;20.40;42.20;;;;;;5053305;28;20423;-68
2022/04/02 05:16:27;;;;;;;4.60;1.50;;;20.50;42.20;;;;;;5061880;28;20169;-66
2022/04/02 05:18:54;;;;;;;6.43;1.60;;;20.60;42.80;;;;;;5072708;28;20177;-67
2022/04/02 05:21:19;;;;;;;2.77;1.70;;;20.70;42.50;;;;;;5071542;28;20989;-67
2022/04/02 05:23:45;;;;;;;2.13;1.67;;;20.70;42.30;;;;;;5071608;28;20411;-67
2022/04/02 05:26:11;;;;;;;8.67;1.37;;;20.80;42.60;;;;;;5067369;28;20180;-67
2022/04/02 05:28:36;;;;;;;3.33;1.60;;;20.80;42.50;;;;;;5057530;28;20685;-67
2022/04/02 05:31:03;;;;;;;3.10;1.30;;;20.80;42.30;;;;;;5058181;28;20683;-67
2022/04/02 05:33:30;;;;;;;4.80;1.27;;;20.80;42.10;;;;;;5062161;28;20165;-66
2022/04/02 05:35:57;;;;;;;4.53;1.50;;;20.90;42.10;;;;;;5071401;28;20419;-66
2022/04/02 05:38:23;;;;;;;3.70;1.70;;;20.90;41.80;;;;;;5058386;28;20443;-67
2022/04/02 05:40:49;;;;;;;3.47;1.40;;;20.90;40.70;;;;;;5062195;28;20466;-67
2022/04/02 05:43:14;;;;;;;2.70;1.30;;;20.90;41.40;;;;;;5068455;28;20184;-67
2022/04/02 05:45:40;;;;;;;4.83;1.50;;;20.90;41.10;;;;;;5055331;28;20407;-67
2022/04/02 05:48:06;;;;;;;4.13;1.33;;;20.90;40.50;;;;;;5071192;28;20215;-66
2022/04/02 05:50:32;;;;;;;3.00;1.40;;;20.90;40.70;;;;;;5070768;28;20259;-67
2022/04/02 05:52:58;;;;;;;3.53;1.53;;;20.90;40.00;;;;;;5071190;28;20287;-67
2022/04/02 05:55:23;;;;;;;2.77;1.47;;;20.90;40.60;;;;;;5071399;28;20180;-67
2022/04/02 05:57:49;;;;;;;2.27;1.40;;;20.90;40.10;;;;;;5071361;28;20200;-66
2022/04/02 06:00:17;;;;;;;1.47;1.03;;;20.90;41.90;;;;;;5070582;28;20196;-67
2022/04/02 06:02:43;;;;;;;5.50;1.30;;;20.90;40.50;;;;;;5071135;28;20554;-67
2022/04/02 06:05:12;;;;;;;2.30;1.47;;;20.90;40.20;;;;;;5074376;28;20438;-67
2022/04/02 06:07:37;;;;;;;2.40;1.70;;;20.90;40.10;;;;;;5074953;28;20850;-68
2022/04/02 06:10:04;;;;;;;2.23;1.20;;;20.90;40.10;;;;;;5074488;28;20917;-67
2022/04/02 06:12:31;;;;;;;1.97;1.20;;;20.90;40.40;;;;;;5074820;28;20219;-67
2022/04/02 06:14:58;;;;;;;1.77;1.13;;;20.90;40.00;;;;;;5074753;28;20905;-66
2022/04/02 06:17:24;;;;;;;1.80;1.10;;;20.80;40.10;;;;;;5074826;28;20399;-67
2022/04/02 06:19:50;;;;;;;1.90;1.30;;;20.80;39.70;;;;;;5074250;28;20454;-67
2022/04/02 06:22:16;;;;;;;1.70;1.10;;;20.80;40.00;;;;;;5074541;28;20848;-68
2022/04/02 06:24:41;;;;;;;3.10;1.43;;;20.80;40.50;;;;;;5076004;28;20443;-68
2022/04/02 06:27:07;;;;;;;2.47;1.40;;;20.80;39.90;;;;;;5074618;28;20169;-65
2022/04/02 06:29:32;;;;;;;1.97;1.20;;;20.80;40.30;;;;;;5074198;28;20570;-66
2022/04/02 06:31:58;;;;;;;1.87;1.13;;;20.80;40.20;;;;;;5074388;28;20210;-66
2022/04/02 06:34:24;;;;;;;1.40;1.10;;;20.80;40.30;;;;;;5074596;28;20285;-66
2022/04/02 06:36:49;;;;;;;2.50;1.40;;;20.80;40.50;;;;;;5074469;28;20700;-66
2022/04/02 06:39:15;;;;;;;1.70;1.17;;;20.70;40.30;;;;;;5073979;28;20698;-66
2022/04/02 06:41:41;;;;;;;1.63;1.07;;;20.80;40.20;;;;;;5074203;28;20279;-67
2022/04/02 06:44:08;;;;;;;1.70;1.13;;;20.80;39.80;;;;;;5074288;28;20222;-67
2022/04/02 06:46:35;;;;;;;2.60;1.47;;;20.80;40.30;;;;;;5074359;28;20744;-66
2022/04/02 06:49:00;;;;;;;2.50;1.53;;;20.80;40.80;;;;;;5073896;28;20418;-67
2022/04/02 06:51:26;;;;;;;2.00;1.23;;;20.80;39.60;;;;;;5075319;28;20521;-67
2022/04/02 06:53:52;;;;;;;2.90;1.60;;;20.80;39.60;;;;;;5074327;28;20176;-68
2022/04/02 06:56:18;;;;;;;16.90;1.50;;;20.80;40.20;;;;;;5073973;28;20411;-69
2022/04/02 06:58:44;;;;;;;1.80;1.10;;;20.80;39.80;;;;;;5073830;28;20505;-68
2022/04/02 07:01:10;;;;;;;2.03;1.27;;;20.80;39.60;;;;;;5073753;28;20199;-67
2022/04/02 07:03:36;;;;;;;1.63;1.13;;;20.90;39.60;;;;;;5073945;28;20177;-68
2022/04/02 07:06:02;;;;;;;1.50;1.03;;;20.90;39.70;;;;;;5073967;28;20168;-68
2022/04/02 07:08:27;;;;;;;2.50;1.20;;;20.90;40.00;;;;;;5073752;28;20918;-67
2022/04/02 07:10:53;;;;;;;3.50;1.27;;;20.90;39.70;;;;;;5075109;28;20441;-68
2022/04/02 07:13:19;;;;;;;2.97;1.10;;;20.90;38.60;;;;;;5073783;28;20177;-68
2022/04/02 07:15:44;;;;;;;6.80;1.37;;;20.90;39.10;;;;;;5073464;28;20182;-69
2022/04/02 07:18:11;;;;;;;3.20;1.50;;;20.90;39.40;;;;;;5073662;28;20178;-68
2022/04/02 07:20:39;;;;;;;1.90;1.23;;;20.90;39.20;;;;;;5073120;28;20203;-67
2022/04/02 07:23:09;;;;;;;5.17;1.40;;;20.80;38.70;;;;;;5073559;28;20411;-66
2022/04/02 07:25:39;;;;;;;3.00;1.40;;;20.80;38.20;;;;;;5073619;28;20899;-66
2022/04/02 07:28:06;;;;;;;2.10;1.20;;;20.80;38.30;;;;;;5074893;28;20468;-67
2022/04/02 07:30:33;;;;;;;2.03;1.57;;;20.80;38.40;;;;;;5073016;28;20505;-67
2022/04/02 07:32:59;;;;;;;2.07;1.30;;;20.90;38.40;;;;;;5073533;28;20766;-65
2022/04/02 07:35:32;;;;;;;8.83;1.57;;;20.90;38.10;;;;;;5074806;28;20434;-65
2022/04/02 07:38:22;;;;;;;7.83;1.57;;;20.90;38.20;;;;;;5073200;28;20407;-66
2022/04/02 07:40:54;;;;;;;9.07;1.50;;;20.90;38.00;;;;;;5072803;28;20458;-65
2022/04/02 07:43:52;;;;;;;3.40;1.50;;;21.00;38.70;;;;;;5073311;28;20406;-65
2022/04/02 07:46:21;;;;;;;6.60;1.60;;;21.00;37.70;;;;;;5073211;28;20435;-67
2022/04/02 07:48:48;;;;;;;4.17;1.70;;;21.00;37.80;;;;;;5072750;28;20501;-67
2022/04/02 07:51:16;;;;;;;2.30;1.27;;;21.00;38.00;;;;;;5072609;28;20451;-65
2022/04/02 07:53:47;;;;;;;1.70;1.10;;;21.00;38.00;;;;;;5072839;28;20489;-67
2022/04/02 07:56:17;;;;;;;5.60;1.37;;;21.00;37.60;;;;;;5072940;28;20915;-65
2022/04/02 07:58:50;;;;;;;3.70;1.60;;;21.00;38.00;;;;;;5072496;28;20446;-66
2022/04/02 08:01:18;;;;;;;3.50;1.63;;;21.00;37.70;;;;;;5072595;28;20492;-66
2022/04/02 08:03:45;;;;;;;4.10;1.53;;;21.00;38.30;;;;;;5072689;28;20461;-67
2022/04/02 08:06:15;;;;;;;3.47;1.30;;;21.00;37.60;;;;;;5072528;28;20915;-66
2022/04/02 08:08:42;;;;;;;5.83;1.30;;;21.00;37.20;;;;;;5072268;28;20837;-67
2022/04/02 08:11:10;;;;;;;4.43;1.40;;;21.10;37.20;;;;;;5072379;28;20430;-64
2022/04/02 08:13:37;;;;;;;2.10;1.33;;;21.10;37.50;;;;;;5072533;28;20402;-66
2022/04/02 08:16:03;;;;;;;1.83;1.23;;;21.10;37.10;;;;;;5072499;28;20415;-66
2022/04/02 08:18:30;;;;;;;4.10;1.50;;;21.10;38.00;;;;;;5072096;28;20438;-67
2022/04/02 08:20:56;;;;;;;2.10;1.47;;;21.10;37.70;;;;;;5071999;28;20541;-65
2022/04/02 08:23:22;;;;;;;5.97;1.47;;;21.10;36.90;;;;;;5072137;28;21003;-67
2022/04/02 08:26:11;;;;;;;3.83;1.50;;;21.10;37.10;;;;;;5072018;28;20263;-65
2022/04/02 08:28:42;;;;;;;2.00;1.30;;;21.10;37.50;;;;;;5071854;28;20417;-67
2022/04/02 08:31:19;;;;;;;5.27;1.37;;;21.10;37.20;;;;;;5073180;28;20418;-67
2022/04/02 08:34:01;;;;;;;2.13;1.30;;;21.10;37.50;;;;;;5072139;28;20402;-66
2022/04/02 08:36:38;;;;;;;4.70;1.60;;;21.10;37.30;;;;;;5072195;28;20428;-66
2022/04/02 08:39:34;;;;;;;2.80;1.70;;;21.10;37.90;;;;;;5071605;28;20857;-67
2022/04/02 08:42:16;;;;;;;3.37;1.53;;;21.10;37.10;;;;;;5071917;28;20457;-66
2022/04/02 08:45:04;;;;;;;4.10;1.20;;;21.00;37.20;;;;;;5072086;28;20415;-66
2022/04/02 08:47:39;;;;;;;7.83;1.37;;;21.00;36.70;;;;;;5072004;28;20914;-66
2022/04/02 08:50:11;;;;;;;9.10;1.50;;;21.00;37.00;;;;;;5071434;28;20399;-65
2022/04/02 08:52:55;;;;;;;2.57;1.30;;;21.00;38.10;;;;;;5071679;28;20503;-66
2022/04/02 08:55:35;;;;;;;5.30;1.73;;;21.00;37.30;;;;;;5071823;28;20896;-65
2022/04/02 08:58:23;;;;;;;2.77;1.23;;;21.00;36.80;;;;;;5071766;28;20439;-66
2022/04/02 09:01:06;;;;;;;3.00;1.37;;;21.00;37.30;;;;;;5071420;28;20466;-65
2022/04/02 09:03:57;;;;;;;9.30;1.73;;;21.00;36.80;;;;;;5071852;28;20410;-65
2022/04/02 09:07:09;;;;;;;9.50;1.33;;;21.10;37.10;;;;;;5071782;28;20911;-66
2022/04/02 09:09:56;;;;;;;4.70;1.23;;;21.00;37.10;;;;;;5071379;28;20415;-66
2022/04/02 09:12:51;;;;;;;3.10;1.17;;;21.00;36.90;;;;;;5071608;28;20441;-65
2022/04/02 09:15:34;;;;;;;2.20;1.40;;;21.00;37.00;;;;;;5071109;28;20825;-66
2022/04/02 09:18:12;;;;;;;2.50;1.30;;;21.00;37.00;;;;;;5071756;28;20438;-66
2022/04/02 09:20:57;;;;;;;1.60;1.20;;;21.00;36.80;;;;;;5070967;28;20520;-66
2022/04/02 09:24:02;;;;;;;2.10;1.30;;;21.00;36.60;;;;;;5071629;28;20412;-66
2022/04/02 09:27:09;;;;;;;4.63;1.43;;;21.00;36.70;;;;;;5071683;28;20414;-65
2022/04/02 09:30:03;;;;;;;2.10;1.50;;;21.00;37.00;;;;;;5022787;28;20804;-65
2022/04/02 09:33:00;;;;;;;3.00;1.47;;;21.00;36.30;;;;;;5070738;28;20437;-64
2022/04/02 09:35:49;;;;;;;3.53;1.27;;;21.00;36.80;;;;;;5071286;28;20415;-66
2022/04/02 09:38:25;;;;;;;2.60;1.07;;;21.00;36.80;;;;;;5073276;28;20406;-66
2022/04/02 09:40:52;;;;;;;1.80;1.13;;;21.00;36.70;;;;;;5075337;28;20458;-66
2022/04/02 09:43:31;;;;;;;2.87;1.47;;;21.00;36.50;;;;;;5075422;28;20490;-66
2022/04/02 09:46:15;;;;;;;2.40;1.30;;;21.10;36.80;;;;;;5075369;28;20414;-66
2022/04/02 09:49:07;;;;;;;2.57;1.13;;;21.10;36.70;;;;;;5075091;28;20407;-65
2022/04/02 09:51:35;;;;;;;2.63;1.20;;;21.10;36.80;;;;;;5075131;28;20439;-66
2022/04/02 09:54:04;;;;;;;2.10;1.20;;;21.10;36.80;;;;;;5075355;28;20448;-66
2022/04/02 09:56:39;;;;;;;2.20;1.30;;;21.10;37.00;;;;;;5075198;28;20414;-66
2022/04/02 09:59:19;;;;;;;4.07;1.10;;;21.10;36.90;;;;;;5074677;28;20402;-65
2022/04/02 10:01:55;;;;;;;2.53;1.10;;;21.10;36.80;;;;;;5075215;28;20430;-65
2022/04/02 10:04:40;;;;;;;1.83;1.10;;;21.10;37.20;;;;;;5075173;28;20402;-66
2022/04/02 10:07:22;;;;;;;1.80;1.27;;;21.10;37.10;;;;;;5075064;28;20422;-66
2022/04/02 10:09:53;;;;;;;1.73;1.00;;;21.10;37.10;;;;;;5075904;28;20503;-66
2022/04/02 10:12:19;;;;;;;6.33;1.20;;;21.10;36.80;;;;;;5074766;28;20431;-65
2022/04/02 10:14:47;;;;;;;2.17;1.27;;;21.10;36.80;;;;;;5075027;28;20414;-66
2022/04/02 10:17:14;;;;;;;2.00;1.20;;;21.20;36.40;;;;;;5074896;28;20423;-66
2022/04/02 10:19:40;;;;;;;1.60;0.90;;;21.20;36.80;;;;;;5074254;28;20970;-66
2022/04/02 10:22:10;;;;;;;4.03;1.20;;;21.20;36.80;;;;;;5074635;28;20479;-66
2022/04/02 10:24:50;;;;;;;1.50;1.00;;;21.20;36.40;;;;;;5074737;28;20214;-66
2022/04/02 10:27:34;;;;;;;2.47;1.10;;;21.20;36.60;;;;;;5074716;28;20649;-66
2022/04/02 10:30:00;;;;;;;4.10;1.17;;;21.20;36.10;;;;;;5074270;28;20446;-66
2022/04/02 10:32:36;;;;;;;2.50;1.07;;;21.20;36.50;;;;;;5074434;28;20476;-66
2022/04/02 10:35:13;;;;;;;1.60;0.97;;;21.20;36.60;;;;;;5074687;28;20418;-66
2022/04/02 10:37:43;;;;;;;2.23;1.37;;;21.20;36.90;;;;;;5074655;28;20550;-65
2022/04/02 10:40:19;;;;;;;1.80;1.10;;;21.30;37.00;;;;;;5073972;28;20463;-66
2022/04/02 10:42:59;;;;;;;1.80;1.10;;;21.30;36.80;;;;;;5074373;28;20460;-66
2022/04/02 10:45:28;;;;;;;1.50;0.97;;;21.30;36.40;;;;;;5074423;28;20452;-66
2022/04/02 10:48:12;;;;;;;1.90;1.20;;;21.30;37.00;;;;;;5074301;28;20415;-66
2022/04/02 10:50:39;;;;;;;3.10;1.30;;;21.30;36.40;;;;;;5073052;28;20414;-66
2022/04/02 10:53:09;;;;;;;2.50;1.33;;;21.30;36.40;;;;;;5075543;28;20922;-66
2022/04/02 10:55:43;;;;;;;1.47;0.90;;;21.30;36.70;;;;;;5068983;28;20446;-66
2022/04/02 10:58:12;;;;;;;1.90;1.20;;;21.40;36.60;;;;;;5063810;28;20426;-67
2022/04/02 11:00:43;;;;;;;3.20;1.90;;;21.30;36.50;;;;;;5061443;28;20455;-68
2022/04/02 11:03:27;;;;;;;1.60;1.10;;;21.40;36.60;;;;;;5054311;28;20485;-67
2022/04/02 11:05:53;;;;;;;2.33;1.10;;;21.40;36.50;;;;;;5067540;28;20423;-67
2022/04/02 11:08:22;;;;;;;1.83;1.20;;;21.40;36.60;;;;;;5057914;28;20435;-66
2022/04/02 11:10:48;;;;;;;2.30;1.27;;;21.40;36.90;;;;;;5053472;28;20201;-67
2022/04/02 11:13:28;;;;;;;2.13;1.20;;;21.40;36.50;;;;;;5053763;28;20822;-67
2022/04/02 11:15:55;;;;;;;2.70;1.37;;;21.40;36.50;;;;;;5053991;28;20407;-67
2022/04/02 11:18:20;;;;;;;2.50;1.20;;;21.40;36.80;;;;;;5053494;28;20416;-67
2022/04/02 11:20:48;;;;;;;1.73;0.90;;;21.40;36.30;;;;;;5053281;28;20559;-66
2022/04/02 11:23:33;;;;;;;1.63;1.10;;;21.40;36.90;;;;;;5053499;28;20625;-67
2022/04/02 11:26:03;;;;;;;2.17;1.10;;;21.40;36.60;;;;;;5053424;28;20408;-65
2022/04/02 11:28:43;;;;;;;1.80;1.10;;;21.40;36.60;;;;;;5053089;28;20443;-66
2022/04/02 11:31:11;;;;;;;1.67;1.03;;;21.40;36.50;;;;;;5053279;28;20459;-64
2022/04/02 11:33:50;;;;;;;2.00;1.10;;;21.40;36.30;;;;;;5053357;28;20442;-65
2022/04/02 11:36:15;;;;;;;9.10;1.20;;;21.50;36.50;;;;;;5048441;28;20930;-65
2022/04/02 11:39:18;;;;;;;3.70;1.03;;;21.50;37.40;;;;;;5050594;28;20411;-65
2022/04/02 11:41:45;;;;;;;1.70;1.27;;;21.30;36.90;;;;;;5020073;28;20211;-66
2022/04/02 11:44:11;;;;;;;2.40;1.03;;;21.50;37.20;;;;;;5050296;28;20392;-65
2022/04/02 11:47:00;;;;;;;2.33;1.20;;;21.50;37.10;;;;;;5050125;28;20457;-66
2022/04/02 11:49:29;;;;;;;1.60;1.00;;;21.60;37.20;;;;;;5048906;28;20184;-66
2022/04/02 11:52:13;;;;;;;2.70;1.13;;;21.60;37.70;;;;;;5049862;28;20461;-66
2022/04/02 11:54:58;;;;;;;2.83;1.10;;;21.60;37.10;;;;;;5049803;28;20426;-66
2022/04/02 11:57:24;;;;;;;1.70;1.00;;;21.60;37.40;;;;;;5050681;28;20412;-67
2022/04/02 12:00:01;;;;;;;2.30;1.50;;;21.60;37.40;;;;;;5049876;28;20466;-67
2022/04/02 12:02:37;;;;;;;2.30;1.40;;;21.60;37.10;;;;;;5050011;28;20426;-67
2022/04/02 12:05:06;;;;;;;2.03;1.03;;;21.60;37.50;;;;;;5049486;28;20436;-66
2022/04/02 12:07:58;;;;;;;2.10;1.20;;;21.60;37.60;;;;;;5050583;28;20895;-67
2022/04/02 12:10:27;;;;;;;2.63;1.20;;;21.60;37.30;;;;;;5045333;28;20892;-67
2022/04/02 12:12:55;;;;;;;7.43;1.20;;;21.60;37.60;;;;;;5049624;28;20416;-67
2022/04/02 12:15:21;;;;;;;2.27;1.17;;;21.60;37.40;;;;;;5049420;28;20419;-67
2022/04/02 12:17:59;;;;;;;2.90;1.60;;;21.60;37.40;;;;;;5051167;28;20411;-66
2022/04/02 12:20:27;;;;;;;3.27;1.40;;;21.60;37.40;;;;;;5049223;28;20662;-67
2022/04/02 12:23:15;;;;;;;3.10;1.43;;;21.60;37.70;;;;;;5048557;28;20831;-67
2022/04/02 12:25:46;;;;;;;2.90;1.33;;;21.60;37.50;;;;;;5049270;28;20452;-67
2022/04/02 12:28:15;;;;;;;2.30;1.40;;;21.60;37.50;;;;;;5049317;28;20414;-67
2022/04/02 12:30:46;;;;;;;2.23;1.30;;;21.60;37.70;;;;;;5049260;28;20408;-66
2022/04/02 12:33:15;;;;;;;2.93;1.70;;;21.60;37.50;;;;;;5049431;28;20416;-66
2022/04/02 12:35:45;;;;;;;3.83;1.77;;;21.60;37.60;;;;;;5049071;28;20970;-66
2022/04/02 12:38:24;;;;;;;5.70;2.83;;;21.60;38.30;;;;;;5049130;28;20415;-67
2022/04/02 12:40:49;;;;;;;3.87;2.07;;;21.60;38.00;;;;;;5049389;28;20466;-67
2022/04/02 12:43:30;;;;;;;4.87;2.43;;;21.60;37.70;;;;;;5048936;28;20400;-66
2022/04/02 12:45:56;;;;;;;5.87;2.80;;;21.60;37.90;;;;;;5048555;28;20196;-65
2022/04/02 12:48:25;;;;;;;3.63;2.27;;;21.60;37.40;;;;;;5048773;28;20407;-65
2022/04/02 12:50:56;;;;;;;6.00;2.37;;;21.60;37.70;;;;;;5050584;28;20432;-66
2022/04/02 12:53:36;;;;;;;5.53;2.90;;;21.60;38.40;;;;;;5047788;28;20426;-66
2022/04/02 12:56:05;;;;;;;4.83;2.40;;;21.60;38.30;;;;;;5049037;28;20430;-66
2022/04/02 12:58:35;;;;;;;8.60;2.73;;;21.60;38.00;;;;;;5048528;28;20922;-66
2022/04/02 13:01:09;;;;;;;3.80;2.00;;;21.50;38.00;;;;;;5048765;28;20463;-65
2022/04/02 13:03:50;;;;;;;4.97;2.13;;;21.60;38.10;;;;;;5048878;28;20408;-66
2022/04/02 13:06:24;;;;;;;3.23;1.90;;;21.60;38.50;;;;;;5049330;28;20451;-65
2022/04/02 13:09:04;;;;;;;5.37;2.63;;;21.50;37.80;;;;;;5048386;28;20420;-66